Impacts METAR Board
IDs:

KSLC - Salt Lake City Intl, UT, US

Updated at: 0100 UTC 24 Jun 2018
Potential Impact None Slight Moderate High
Time 23/13Z 23/14Z 23/15Z 23/16Z 23/17Z 23/18Z 23/19Z 23/20Z 23/21Z 23/22Z 23/23Z 24/00Z 24/01Z
Temp69 71 75 80 82 82 84 84 85 86 86 86 83
Dewpt40 40 40 38 37 42 42 40 38 37 34 32 33
Altim29.91 29.91 29.93 29.92 29.91 29.91 29.90 29.88 29.87 29.87 29.85 29.84 29.85
VIS10 10 10 10 10 10 10 10 10 10 10 10 10
CIG-- -- -- -- -- -- -- -- -- -- -- -- --
CoverFEWFEWSCTSCTFEWFEWSCTSCTSCTFEWFEWFEWFEW
FltCatVFRVFRVFRVFRVFRVFRVFRVFRVFRVFRVFRVFRVFR
WX--------------------------
WDir14015011003100310330350320340360330
WSpd8 8 5 5 9 4 10 11 14 11 17 15 18
WGst-- -- -- -- -- -- 20 15 20 20 20 -- --
Raw hourly METARs
KSLC 231254Z 14008KT 10SM FEW150 FEW220 21/04 A2991 RMK AO2 SLP070 T02060044
KSLC 231354Z 15008KT 10SM FEW140 FEW180 22/04 A2991 RMK AO2 SLP072 T02170044
KSLC 231454Z 11005KT 10SM FEW130 SCT140 24/04 A2993 RMK AO2 SLP076 T02390044 53010
KSLC 231554Z VRB05KT 10SM FEW130 SCT140 27/03 A2992 RMK AO2 SLP072 T02670033
KSLC 231654Z 31009KT 10SM FEW110 FEW130 28/03 A2991 RMK AO2 SLP070 TCU DSNT SE ACSL DSNT N T02780028
KSLC 231754Z VRB04KT 10SM FEW085 FEW130 28/06 A2991 RMK AO2 SLP068 TCU DSNT NE AND SE T02780056 10283 20200 57007
KSLC 231854Z 31010G20KT 10SM FEW085 SCT120 29/06 A2990 RMK AO2 SLP066 TCU DSNT N T02890056
KSLC 231954Z 33011G15KT 10SM FEW085 FEW100 SCT125 29/04 A2988 RMK AO2 SLP061 TCU DSNT NE T02890044
KSLC 232054Z 35014G20KT 10SM FEW090 SCT120 29/03 A2987 RMK AO2 SLP058 TCU DSNT NE T02940033 58010
KSLC 232154Z 32011G20KT 10SM FEW090 30/03 A2987 RMK AO2 SLP056 T03000028
KSLC 232254Z 34017G20KT 10SM FEW090 30/01 A2985 RMK AO2 SLP052 T03000011
KSLC 232354Z 36015KT 10SM FEW090 30/00 A2984 RMK AO2 SLP049 T03000000 10306 20278 58008
KSLC 240054Z 33018KT 10SM FEW085 28/01 A2985 RMK AO2 SLP051 T02830006



Page loaded:  01:18 UTC  |   06:18 PM Pacific  |   07:18 PM Mountain  |   08:18 PM Central  |   09:18 PM Eastern

 

ADVISORIES

FORECASTS

FORECASTS

OBSERVATIONS

USER TOOLS

ABOUT US